createdAt,value
2023-05-02T00:00:51.150Z,5.18
2023-05-02T00:03:17.938Z,5.18
2023-05-02T00:05:44.714Z,4.78
2023-05-02T00:08:11.666Z,4.30
2023-05-02T00:10:38.378Z,4.20
2023-05-02T00:13:05.074Z,4.53
2023-05-02T00:15:31.822Z,4.22
2023-05-02T00:17:58.434Z,4.25
2023-05-02T00:20:25.313Z,5.00
2023-05-02T00:22:51.961Z,4.47
2023-05-02T00:25:18.632Z,4.55
2023-05-02T00:27:45.470Z,4.35
2023-05-02T00:30:12.607Z,3.97
2023-05-02T00:32:39.280Z,5.25
2023-05-02T00:35:06.896Z,4.27
2023-05-02T00:37:33.619Z,4.75
2023-05-02T00:40:00.594Z,4.80
2023-05-02T00:42:27.481Z,4.80
2023-05-02T00:44:54.066Z,4.53
2023-05-02T00:47:20.808Z,5.27
2023-05-02T00:49:47.377Z,5.57
2023-05-02T00:52:14.019Z,4.95
2023-05-02T00:54:40.794Z,4.97
2023-05-02T00:57:07.505Z,5.22
2023-05-02T00:59:36.880Z,5.17
2023-05-02T01:02:43.381Z,5.32
2023-05-02T01:05:13.086Z,5.80
2023-05-02T01:07:59.753Z,5.57
2023-05-02T01:10:38.184Z,4.97
2023-05-02T01:13:28.193Z,5.20
2023-05-02T01:15:58.099Z,5.47
2023-05-02T01:18:28.218Z,5.45
2023-05-02T01:21:01.332Z,5.40
2023-05-02T01:23:46.476Z,6.05
2023-05-02T01:26:21.614Z,5.73
2023-05-02T01:29:01.826Z,5.75
2023-05-02T01:31:49.459Z,5.88
2023-05-02T01:34:18.955Z,6.28
2023-05-02T01:36:48.829Z,6.40
2023-05-02T01:39:20.658Z,6.10
2023-05-02T01:41:50.623Z,6.38
2023-05-02T01:44:20.088Z,5.90
2023-05-02T01:46:48.662Z,5.88
2023-05-02T01:49:15.384Z,6.20
2023-05-02T01:51:48.001Z,6.30
2023-05-02T01:54:17.208Z,6.10
2023-05-02T01:56:44.951Z,6.72
2023-05-02T01:59:15.571Z,6.65
2023-05-02T02:01:43.911Z,6.35
2023-05-02T02:04:13.935Z,7.13
2023-05-02T02:06:44.559Z,6.25
2023-05-02T02:09:11.340Z,6.60
2023-05-02T02:11:46.127Z,7.05
2023-05-02T02:14:18.974Z,6.82
2023-05-02T02:16:46.411Z,6.43
2023-05-02T02:19:15.483Z,6.78
2023-05-02T02:21:48.230Z,7.72
2023-05-02T02:24:18.037Z,7.05
2023-05-02T02:26:44.817Z,6.97
2023-05-02T02:29:11.792Z,7.30
2023-05-02T02:31:38.568Z,7.03
2023-05-02T02:34:05.793Z,7.32
2023-05-02T02:37:01.871Z,7.47
2023-05-02T02:39:40.451Z,7.57
2023-05-02T02:42:36.074Z,6.93
2023-05-02T02:45:20.736Z,7.18
2023-05-02T02:48:22.812Z,7.18
2023-05-02T02:51:12.039Z,7.50
2023-05-02T02:54:05.862Z,7.60
2023-05-02T02:56:40.452Z,7.43
2023-05-02T02:59:14.561Z,7.43
2023-05-02T03:01:44.066Z,7.78
2023-05-02T03:04:13.548Z,7.68
2023-05-02T03:06:40.460Z,7.63
2023-05-02T03:09:14.559Z,7.57
2023-05-02T03:11:41.260Z,7.45
2023-05-02T03:14:07.957Z,7.88
2023-05-02T03:16:41.650Z,7.90
2023-05-02T03:19:08.532Z,8.38
2023-05-02T03:21:35.475Z,7.80
2023-05-02T03:24:04.430Z,8.18
2023-05-02T03:26:31.283Z,7.38
2023-05-02T03:28:57.936Z,7.60
2023-05-02T03:31:26.397Z,7.22
2023-05-02T03:33:53.566Z,7.10
2023-05-02T03:36:20.181Z,7.43
2023-05-02T03:38:46.812Z,7.85
2023-05-02T03:41:13.506Z,7.38
2023-05-02T03:43:43.092Z,6.95
2023-05-02T03:46:10.170Z,8.27
2023-05-02T03:48:36.837Z,7.30
2023-05-02T03:51:04.970Z,8.07
2023-05-02T03:53:31.771Z,6.43
2023-05-02T03:55:58.537Z,6.97
2023-05-02T03:58:25.745Z,7.50
2023-05-02T04:00:52.541Z,7.13
2023-05-02T04:03:19.931Z,6.82
2023-05-02T04:05:46.842Z,6.93
2023-05-02T04:08:13.613Z,7.30
2023-05-02T04:10:40.397Z,7.70
2023-05-02T04:13:07.041Z,7.85
2023-05-02T04:15:33.807Z,8.77
2023-05-02T04:18:01.002Z,7.03
2023-05-02T04:20:27.722Z,6.75
2023-05-02T04:22:54.350Z,7.03
2023-05-02T04:25:21.084Z,7.00
2023-05-02T04:27:47.746Z,6.75
2023-05-02T04:30:14.383Z,6.80
2023-05-02T04:32:41.162Z,6.95
2023-05-02T04:35:08.186Z,6.77
2023-05-02T04:37:38.110Z,6.82
2023-05-02T04:40:05.386Z,6.82
2023-05-02T04:42:32.034Z,6.57
2023-05-02T04:44:58.638Z,7.80
2023-05-02T04:47:25.402Z,6.83
2023-05-02T04:49:52.152Z,6.95
2023-05-02T04:52:18.966Z,6.97
2023-05-02T04:54:45.605Z,6.35
2023-05-02T04:57:12.235Z,6.70
2023-05-02T04:59:38.857Z,6.60
2023-05-02T05:02:05.740Z,6.55
2023-05-02T05:04:32.505Z,6.38
2023-05-02T05:06:59.310Z,6.57
2023-05-02T05:09:26.012Z,5.88
2023-05-02T05:11:52.817Z,6.10
2023-05-02T05:14:19.623Z,6.78
2023-05-02T05:16:46.423Z,6.20
2023-05-02T05:19:13.077Z,5.97
2023-05-02T05:21:39.679Z,6.13
2023-05-02T05:24:06.580Z,5.90
2023-05-02T05:26:33.338Z,6.50
2023-05-02T05:28:59.952Z,5.80
2023-05-02T05:31:26.709Z,5.63
2023-05-02T05:33:53.541Z,5.30
2023-05-02T05:36:22.112Z,5.80
2023-05-02T05:38:50.999Z,5.47
2023-05-02T05:41:17.678Z,5.20
2023-05-02T05:43:44.376Z,5.25
2023-05-02T05:46:11.035Z,5.05
2023-05-02T05:48:37.729Z,4.53
2023-05-02T05:51:05.487Z,4.53
2023-05-02T05:53:32.507Z,4.30
2023-05-02T05:56:11.946Z,4.28
2023-05-02T05:58:41.739Z,3.88
2023-05-02T06:01:08.469Z,3.87
2023-05-02T06:03:35.469Z,4.28
2023-05-02T06:06:04.299Z,3.80
2023-05-02T06:08:30.949Z,3.60
2023-05-02T06:11:00.666Z,3.60
2023-05-02T06:13:27.336Z,3.60
2023-05-02T06:15:54.087Z,3.40
2023-05-02T06:18:20.762Z,3.70
2023-05-02T06:20:47.468Z,3.90
2023-05-02T06:23:17.414Z,3.85
2023-05-02T06:25:44.616Z,3.13
2023-05-02T06:28:18.185Z,3.58
2023-05-02T06:30:44.893Z,4.07
2023-05-02T06:33:11.573Z,3.75
2023-05-02T06:35:39.368Z,3.55
2023-05-02T06:38:09.060Z,3.70
2023-05-02T06:40:36.024Z,3.63
2023-05-02T06:43:02.774Z,3.00
2023-05-02T06:45:32.553Z,3.03
2023-05-02T06:47:59.280Z,3.10
2023-05-02T06:50:26.142Z,3.90
2023-05-02T06:52:52.804Z,3.67
2023-05-02T06:55:19.509Z,3.60
2023-05-02T06:57:46.171Z,3.50
2023-05-02T07:00:13.436Z,3.05
2023-05-02T07:02:40.230Z,2.97
2023-05-02T07:05:20.389Z,2.65
2023-05-02T07:07:47.039Z,2.80
2023-05-02T07:10:13.869Z,2.95
2023-05-02T07:12:41.818Z,2.92
2023-05-02T07:15:08.955Z,2.80
2023-05-02T07:17:35.679Z,3.10
2023-05-02T07:20:02.846Z,2.90
2023-05-02T07:22:29.773Z,2.90
2023-05-02T07:25:02.709Z,3.35
2023-05-02T07:27:29.401Z,3.10
2023-05-02T07:29:57.067Z,2.90
2023-05-02T07:35:13.370Z,2.60
2023-05-02T07:37:46.784Z,2.72
2023-05-02T07:40:13.559Z,3.30
2023-05-02T07:42:40.197Z,2.67
2023-05-02T07:45:07.957Z,2.80
2023-05-02T07:47:46.744Z,2.50
2023-05-02T07:50:43.265Z,3.08
2023-05-02T07:53:20.542Z,2.50
2023-05-02T07:55:51.519Z,2.65
2023-05-02T07:58:18.334Z,2.78
2023-05-02T08:00:45.043Z,2.75
2023-05-02T08:03:11.865Z,2.60
2023-05-02T08:05:38.486Z,2.80
2023-05-02T08:08:05.452Z,2.67
2023-05-02T08:10:32.118Z,2.55
2023-05-02T08:12:58.799Z,2.70
2023-05-02T08:15:25.829Z,2.80
2023-05-02T08:17:52.640Z,2.57
2023-05-02T08:20:19.305Z,2.50
2023-05-02T08:22:46.048Z,2.70
2023-05-02T08:25:12.855Z,2.80
2023-05-02T08:27:42.321Z,2.65
2023-05-02T08:30:09.310Z,2.23
2023-05-02T08:32:36.813Z,2.38
2023-05-02T08:35:03.981Z,2.33
2023-05-02T08:37:30.640Z,2.80
2023-05-02T08:39:57.610Z,2.63
2023-05-02T08:42:25.289Z,2.47
2023-05-02T08:44:52.019Z,3.00
2023-05-02T08:47:19.471Z,2.83
2023-05-02T08:49:47.240Z,2.55
2023-05-02T08:52:15.961Z,2.53
2023-05-02T08:54:43.131Z,2.37
2023-05-02T08:57:12.291Z,2.70
2023-05-02T08:59:39.259Z,2.47
2023-05-02T09:02:18.257Z,2.30
2023-05-02T09:04:47.855Z,2.50
2023-05-02T09:07:16.767Z,2.33
2023-05-02T09:09:43.566Z,2.40
2023-05-02T09:12:10.304Z,2.30
2023-05-02T09:14:37.400Z,2.50
2023-05-02T09:17:04.260Z,2.25
2023-05-02T09:19:31.418Z,2.40
2023-05-02T09:22:01.282Z,2.40
2023-05-02T09:24:31.077Z,2.30
2023-05-02T09:27:03.602Z,2.80
2023-05-02T09:29:32.361Z,2.10
2023-05-02T09:32:01.455Z,2.30
2023-05-02T09:34:28.414Z,2.33
2023-05-02T09:36:55.049Z,2.15
2023-05-02T09:39:30.497Z,2.55
2023-05-02T09:41:58.258Z,2.25
2023-05-02T09:44:26.600Z,2.30
2023-05-02T09:46:57.327Z,2.80
2023-05-02T09:49:41.713Z,2.25
2023-05-02T09:52:13.097Z,2.13
2023-05-02T09:54:40.018Z,2.30
2023-05-02T09:57:39.677Z,2.50
2023-05-02T10:00:08.149Z,2.50
2023-05-02T10:02:36.048Z,2.47
2023-05-02T10:05:07.493Z,2.35
2023-05-02T10:07:34.665Z,2.17
2023-05-02T10:10:02.814Z,2.53
2023-05-02T10:12:32.779Z,2.20
2023-05-02T10:15:04.597Z,2.50
2023-05-02T10:17:39.460Z,2.72
2023-05-02T10:20:16.541Z,2.25
2023-05-02T10:22:47.606Z,2.40
2023-05-02T10:25:14.575Z,2.50
2023-05-02T10:27:42.072Z,2.38
2023-05-02T10:30:20.402Z,2.30
2023-05-02T10:32:49.531Z,2.20
2023-05-02T10:35:16.363Z,2.17
2023-05-02T10:37:45.506Z,2.20
2023-05-02T10:40:13.391Z,2.47
2023-05-02T10:42:44.341Z,2.00
2023-05-02T10:45:13.377Z,2.63
2023-05-02T10:47:40.803Z,2.00
2023-05-02T10:50:07.910Z,1.95
2023-05-02T10:52:36.802Z,2.28
2023-05-02T10:55:42.767Z,1.80
2023-05-02T10:58:10.511Z,2.13
2023-05-02T11:00:37.517Z,2.07
2023-05-02T11:03:05.299Z,2.00
2023-05-02T11:05:32.009Z,1.92
2023-05-02T11:08:21.364Z,2.08
2023-05-02T11:10:49.936Z,2.00
2023-05-02T11:13:16.598Z,2.10
2023-05-02T11:15:43.330Z,2.10
2023-05-02T11:18:14.468Z,1.83
2023-05-02T11:20:42.549Z,2.10
2023-05-02T11:23:15.109Z,1.90
2023-05-02T11:25:46.786Z,1.77
2023-05-02T11:28:37.885Z,1.90
2023-05-02T11:31:25.094Z,1.85
2023-05-02T11:34:02.513Z,2.10
2023-05-02T11:36:35.681Z,2.00
2023-05-02T11:39:04.715Z,2.50
2023-05-02T11:41:47.080Z,1.75
2023-05-02T11:44:13.696Z,1.40
2023-05-02T11:46:41.131Z,1.38
2023-05-02T11:49:12.674Z,1.88
2023-05-02T11:51:49.129Z,1.30
2023-05-02T11:54:22.084Z,1.92
2023-05-02T11:56:55.120Z,1.77
2023-05-02T11:59:21.822Z,1.60
2023-05-02T12:01:52.800Z,2.00
2023-05-02T12:04:19.616Z,1.80
2023-05-02T12:07:04.820Z,1.77
2023-05-02T12:09:31.575Z,1.42
2023-05-02T12:11:58.239Z,1.60
2023-05-02T12:14:29.443Z,1.60
2023-05-02T12:16:58.477Z,2.10
2023-05-02T12:19:31.455Z,2.10
2023-05-02T12:22:02.000Z,1.80
2023-05-02T12:24:50.183Z,1.80
2023-05-02T12:27:17.321Z,1.60
2023-05-02T12:29:48.616Z,1.83
2023-05-02T12:32:29.752Z,1.70
2023-05-02T12:35:00.567Z,1.58
2023-05-02T12:37:28.489Z,1.65
2023-05-02T12:39:56.503Z,1.70
2023-05-02T12:42:25.242Z,1.60
2023-05-02T12:44:52.747Z,2.00
2023-05-02T12:47:20.749Z,2.05
2023-05-02T12:50:00.940Z,1.92
2023-05-02T12:52:47.427Z,1.92
2023-05-02T12:55:17.990Z,2.27
2023-05-02T12:57:44.827Z,1.67
2023-05-02T13:00:12.230Z,1.60
2023-05-02T13:02:38.982Z,1.80
2023-05-02T13:05:16.154Z,1.50
2023-05-02T13:07:42.839Z,1.80
2023-05-02T13:10:11.269Z,1.70
2023-05-02T13:12:38.310Z,2.22
2023-05-02T13:15:07.855Z,1.55
2023-05-02T13:17:35.589Z,1.70
